createdAt,value
2022-12-08T00:00:31.407Z,100355.75
2022-12-08T00:03:41.436Z,100354.44
2022-12-08T00:07:05.194Z,100358.50
2022-12-08T00:10:46.701Z,100354.16
2022-12-08T00:13:38.737Z,100346.72
2022-12-08T00:16:50.363Z,100349.31
2022-12-08T00:19:58.562Z,100343.75
2022-12-08T00:23:08.423Z,100349.69
2022-12-08T00:26:14.409Z,100343.47
2022-12-08T00:29:24.182Z,100344.47
2022-12-08T00:32:30.346Z,100355.28
2022-12-08T00:35:43.053Z,100354.91
2022-12-08T00:38:52.632Z,100353.84
2022-12-08T00:42:13.324Z,100365.25
2022-12-08T00:45:18.728Z,100365.34
2022-12-08T00:48:27.548Z,100362.13
2022-12-08T00:51:32.908Z,100358.66
2022-12-08T00:54:41.193Z,100366.19
2022-12-08T00:57:48.509Z,100371.00
2022-12-08T01:00:56.183Z,100374.91
2022-12-08T01:04:06.660Z,100365.09
2022-12-08T01:07:13.480Z,100362.37
2022-12-08T01:10:22.629Z,100355.91
2022-12-08T01:13:30.674Z,100372.16
2022-12-08T01:16:41.601Z,100367.41
2022-12-08T01:19:53.500Z,100364.19
2022-12-08T01:22:59.560Z,100373.34
2022-12-08T01:26:08.633Z,100362.66
2022-12-08T01:29:14.354Z,100361.59
2022-12-08T01:32:20.451Z,100367.47
2022-12-08T01:35:25.853Z,100363.75
2022-12-08T01:38:34.872Z,100360.41
2022-12-08T01:41:41.973Z,100361.44
2022-12-08T01:44:54.764Z,100355.97
2022-12-08T01:48:04.299Z,100367.03
2022-12-08T01:51:11.455Z,100362.41
2022-12-08T01:54:20.902Z,100354.31
2022-12-08T01:57:29.648Z,100351.63
2022-12-08T02:00:35.937Z,100357.47
2022-12-08T02:03:44.412Z,100352.91
2022-12-08T02:06:53.507Z,100354.59
2022-12-08T02:10:01.533Z,100347.44
2022-12-08T02:13:09.687Z,100344.38
2022-12-08T02:16:35.669Z,100342.44
2022-12-08T02:19:48.132Z,100336.00
2022-12-08T02:23:07.187Z,100340.47
2022-12-08T02:26:14.333Z,100343.50
2022-12-08T02:29:37.205Z,100332.81
2022-12-08T02:33:01.970Z,100324.94
2022-12-08T02:36:14.075Z,100320.28
2022-12-08T02:39:19.972Z,100322.72
2022-12-08T02:42:32.463Z,100321.66
2022-12-08T02:45:46.376Z,100329.16
2022-12-08T02:48:53.194Z,100325.72
2022-12-08T02:52:06.888Z,100327.69
2022-12-08T02:55:24.173Z,100320.78
2022-12-08T02:58:29.648Z,100327.69
2022-12-08T03:01:45.675Z,100311.97
2022-12-08T03:05:09.266Z,100310.84
2022-12-08T03:08:24.349Z,100300.12
2022-12-08T03:11:37.685Z,100303.34
2022-12-08T03:14:48.421Z,100307.00
2022-12-08T03:17:58.982Z,100299.53
2022-12-08T03:21:09.321Z,100301.00
2022-12-08T03:24:16.542Z,100306.62
2022-12-08T03:27:24.914Z,100308.41
2022-12-08T03:30:32.053Z,100307.47
2022-12-08T03:33:43.162Z,100309.03
2022-12-08T03:36:49.689Z,100305.19
2022-12-08T03:39:57.061Z,100308.00
2022-12-08T03:43:04.515Z,100307.28
2022-12-08T03:46:11.613Z,100306.06
2022-12-08T03:49:20.887Z,100304.75
2022-12-08T03:52:27.286Z,100307.16
2022-12-08T03:55:35.547Z,100316.53
2022-12-08T03:58:44.554Z,100304.97
2022-12-08T04:01:53.975Z,100305.41
2022-12-08T04:05:01.452Z,100294.25
2022-12-08T04:08:10.696Z,100294.78
2022-12-08T04:11:21.508Z,100295.00
2022-12-08T04:14:28.494Z,100301.06
2022-12-08T04:17:36.258Z,100293.88
2022-12-08T04:20:42.838Z,100286.56
2022-12-08T04:23:54.954Z,100288.44
2022-12-08T04:27:03.687Z,100280.22
2022-12-08T04:30:08.326Z,100280.75
2022-12-08T04:33:14.758Z,100280.50
2022-12-08T04:36:22.221Z,100285.72
2022-12-08T04:39:29.175Z,100286.69
2022-12-08T04:42:36.536Z,100286.47
2022-12-08T04:45:44.668Z,100285.22
2022-12-08T04:48:53.528Z,100282.72
2022-12-08T04:52:01.900Z,100283.97
2022-12-08T04:55:07.834Z,100281.25
2022-12-08T04:58:14.714Z,100285.03
2022-12-08T05:01:20.940Z,100281.78
2022-12-08T05:04:27.540Z,100279.59
2022-12-08T05:07:36.098Z,100273.00
2022-12-08T05:10:41.863Z,100281.37
2022-12-08T05:13:51.643Z,100282.31
2022-12-08T05:17:02.569Z,100292.13
2022-12-08T05:20:11.223Z,100292.75
2022-12-08T05:23:18.330Z,100280.72
2022-12-08T05:26:24.159Z,100288.97
2022-12-08T05:29:29.193Z,100293.97
2022-12-08T05:32:35.941Z,100286.47
2022-12-08T05:35:42.830Z,100282.72
2022-12-08T05:38:51.820Z,100286.25
2022-12-08T05:41:59.318Z,100267.25
2022-12-08T05:45:05.382Z,100266.66
2022-12-08T05:48:10.228Z,100272.91
2022-12-08T05:51:25.160Z,100259.34
2022-12-08T05:54:30.474Z,100256.09
2022-12-08T05:57:36.288Z,100256.63
2022-12-08T06:00:41.604Z,100263.31
2022-12-08T06:03:46.158Z,100281.16
2022-12-08T06:06:50.080Z,100273.84
2022-12-08T06:09:55.156Z,100280.75
2022-12-08T06:12:59.898Z,100277.94
2022-12-08T06:16:06.900Z,100281.56
2022-12-08T06:19:11.556Z,100283.25
2022-12-08T06:22:16.870Z,100300.16
2022-12-08T06:25:21.063Z,100291.81
2022-12-08T06:28:27.012Z,100291.25
2022-12-08T06:31:31.754Z,100298.28
2022-12-08T06:34:37.024Z,100294.28
2022-12-08T06:37:41.684Z,100301.63
2022-12-08T06:40:45.419Z,100298.16
2022-12-08T06:43:47.914Z,100291.84
2022-12-08T06:46:51.218Z,100295.84
2022-12-08T06:49:54.521Z,100296.06
2022-12-08T06:53:05.140Z,100297.06
2022-12-08T06:56:09.071Z,100292.38
2022-12-08T06:59:12.868Z,100297.59
2022-12-08T07:02:15.741Z,100301.44
2022-12-08T07:05:19.893Z,100307.12
2022-12-08T07:08:26.301Z,100304.50
2022-12-08T07:11:30.660Z,100307.16
2022-12-08T07:14:33.509Z,100308.00
2022-12-08T07:17:36.339Z,100298.13
2022-12-08T07:20:39.552Z,100299.97
2022-12-08T07:23:43.526Z,100296.94
2022-12-08T07:26:47.195Z,100295.59
2022-12-08T07:29:51.094Z,100304.13
2022-12-08T07:32:55.065Z,100303.12
2022-12-08T07:35:59.943Z,100294.34
2022-12-08T07:39:02.572Z,100299.91
2022-12-08T07:42:06.282Z,100285.94
2022-12-08T07:45:09.767Z,100294.19
2022-12-08T07:48:13.620Z,100301.34
2022-12-08T07:51:17.249Z,100290.56
2022-12-08T07:54:21.317Z,100292.56
2022-12-08T07:57:24.880Z,100291.13
2022-12-08T08:00:31.577Z,100289.53
2022-12-08T08:03:37.313Z,100294.72
2022-12-08T08:06:40.976Z,100284.53
2022-12-08T08:09:46.026Z,100291.75
2022-12-08T08:12:50.791Z,100290.75
2022-12-08T08:15:55.482Z,100292.50
2022-12-08T08:18:59.625Z,100292.78
2022-12-08T08:22:03.524Z,100295.03
2022-12-08T08:25:08.003Z,100297.22
2022-12-08T08:28:11.868Z,100293.44
2022-12-08T08:31:14.508Z,100282.25
2022-12-08T08:34:18.044Z,100280.69
2022-12-08T08:37:21.281Z,100287.38
2022-12-08T08:40:26.044Z,100290.44
2022-12-08T08:43:37.563Z,100294.50
2022-12-08T08:46:43.456Z,100285.91
2022-12-08T08:49:48.350Z,100285.94
2022-12-08T08:52:53.314Z,100280.34
2022-12-08T08:55:58.461Z,100291.28
2022-12-08T08:59:04.723Z,100285.66
2022-12-08T09:02:16.963Z,100289.84
2022-12-08T09:05:21.018Z,100279.72
2022-12-08T09:08:24.910Z,100263.00
2022-12-08T09:11:29.748Z,100271.34
2022-12-08T09:14:33.015Z,100269.56
2022-12-08T09:17:38.735Z,100284.09
2022-12-08T09:20:42.822Z,100279.91
2022-12-08T09:23:46.330Z,100264.31
2022-12-08T09:26:49.458Z,100251.09
2022-12-08T09:29:54.012Z,100248.25
2022-12-08T09:32:57.085Z,100260.59
2022-12-08T09:36:03.979Z,100266.63
2022-12-08T09:39:06.813Z,100264.84
2022-12-08T09:42:10.321Z,100254.91
2022-12-08T09:45:15.158Z,100255.38
2022-12-08T09:48:23.306Z,100244.50
2022-12-08T09:51:34.870Z,100241.44
2022-12-08T09:54:37.628Z,100233.09
2022-12-08T09:57:40.198Z,100224.31
2022-12-08T10:00:43.064Z,100210.56
2022-12-08T10:03:46.385Z,100214.81
2022-12-08T10:06:58.028Z,100205.25
2022-12-08T10:10:01.066Z,100217.50
2022-12-08T10:13:15.772Z,100227.66
2022-12-08T10:16:33.277Z,100226.59
2022-12-08T10:19:36.029Z,100234.56
2022-12-08T10:22:44.473Z,100238.59
2022-12-08T10:25:48.755Z,100232.19
2022-12-08T10:28:51.915Z,100220.44
2022-12-08T10:31:56.639Z,100213.37
2022-12-08T10:35:18.817Z,100219.78
2022-12-08T10:38:26.266Z,100208.47
2022-12-08T10:41:29.588Z,100194.91
2022-12-08T10:44:34.323Z,100187.91
2022-12-08T10:47:45.004Z,100177.13
2022-12-08T10:50:54.389Z,100172.66
2022-12-08T10:53:58.858Z,100171.00
2022-12-08T10:57:02.354Z,100162.56
2022-12-08T11:00:13.664Z,100162.84
2022-12-08T11:03:29.382Z,100153.47
2022-12-08T11:06:36.734Z,100151.53
2022-12-08T11:09:49.291Z,100147.50
2022-12-08T11:12:54.085Z,100143.78
2022-12-08T11:15:58.188Z,100134.78
2022-12-08T11:19:07.382Z,100139.91
2022-12-08T11:22:30.275Z,100132.44
2022-12-08T11:25:34.162Z,100131.13
2022-12-08T11:28:39.201Z,100118.09
2022-12-08T11:31:50.487Z,100113.19
2022-12-08T11:34:55.767Z,100099.62
2022-12-08T11:38:20.656Z,100108.06
2022-12-08T11:41:30.359Z,100088.88
2022-12-08T11:44:45.560Z,100086.91
2022-12-08T11:47:55.738Z,100071.41
2022-12-08T11:51:06.103Z,100055.91
2022-12-08T11:54:14.443Z,100051.06
2022-12-08T11:57:21.169Z,100049.81
2022-12-08T12:00:25.068Z,100047.59
2022-12-08T12:03:38.650Z,100056.50
2022-12-08T12:07:01.212Z,100053.13
2022-12-08T12:10:17.808Z,100041.38
2022-12-08T12:13:34.864Z,100049.28
2022-12-08T12:16:46.068Z,100052.00
2022-12-08T12:19:49.990Z,100056.88
2022-12-08T12:22:57.012Z,100052.72
2022-12-08T12:26:01.306Z,100058.50
2022-12-08T12:29:06.698Z,100055.34
2022-12-08T12:32:10.443Z,100047.56
2022-12-08T12:35:15.865Z,100053.69
2022-12-08T12:38:40.246Z,100052.12
2022-12-08T12:41:57.400Z,100056.09
2022-12-08T12:45:11.403Z,100054.19
2022-12-08T12:48:21.501Z,100054.75
2022-12-08T12:51:35.465Z,100054.44
2022-12-08T12:54:42.558Z,100062.78
2022-12-08T12:57:53.301Z,100052.69
2022-12-08T13:01:08.921Z,100045.66
2022-12-08T13:04:12.707Z,100035.44
2022-12-08T13:07:23.031Z,100030.47
2022-12-08T13:10:26.274Z,100030.44
2022-12-08T13:13:29.759Z,100037.84
2022-12-08T13:16:34.877Z,100035.06
2022-12-08T13:19:39.119Z,100033.59
2022-12-08T13:23:02.444Z,100030.09
2022-12-08T13:26:09.578Z,100021.88
2022-12-08T13:29:16.801Z,100022.81
2022-12-08T13:33:16.238Z,100013.59
2022-12-08T13:36:17.333Z,100019.25
2022-12-08T13:39:26.009Z,100022.91
2022-12-08T13:42:48.169Z,100025.84
2022-12-08T13:46:57.467Z,100032.56
2022-12-08T13:51:24.028Z,100036.94
2022-12-08T13:53:49.490Z,100032.97
2022-12-08T13:59:45.588Z,100023.97
2022-12-08T14:02:51.398Z,100027.44
2022-12-08T14:06:12.279Z,100024.66
2022-12-08T14:09:20.334Z,100023.34
2022-12-08T14:12:26.587Z,100030.87
2022-12-08T14:15:38.221Z,100023.97
2022-12-08T14:18:44.245Z,100024.66
2022-12-08T14:22:07.789Z,100020.56
2022-12-08T14:25:15.433Z,100021.19
2022-12-08T14:28:20.417Z,100024.97
2022-12-08T14:31:24.736Z,100028.94
2022-12-08T14:34:27.962Z,100014.16
2022-12-08T14:37:33.534Z,100023.78
2022-12-08T14:40:37.788Z,100025.38
2022-12-08T14:43:43.842Z,100027.88
2022-12-08T14:47:07.931Z,100017.53
2022-12-08T14:50:30.550Z,100025.31
2022-12-08T14:53:38.708Z,100026.78
2022-12-08T14:56:54.507Z,100023.66
2022-12-08T15:00:08.069Z,100013.13
2022-12-08T15:03:12.951Z,100020.19
2022-12-08T15:06:17.257Z,100015.88
2022-12-08T15:09:31.517Z,100017.22
2022-12-08T15:12:36.067Z,100003.03
2022-12-08T15:15:49.238Z,100009.94
2022-12-08T15:19:05.593Z,100007.13
2022-12-08T15:22:22.699Z,99997.72
2022-12-08T15:25:27.702Z,100010.13
2022-12-08T15:28:33.074Z,100002.34
2022-12-08T15:31:39.301Z,100004.56
2022-12-08T15:34:45.264Z,100009.81
2022-12-08T15:37:51.078Z,100003.19
2022-12-08T15:40:55.732Z,99996.78
2022-12-08T15:43:59.916Z,99997.72
2022-12-08T15:47:04.504Z,99987.97
2022-12-08T15:50:08.248Z,99981.88
2022-12-08T15:53:13.359Z,99986.41
2022-12-08T15:56:28.712Z,99975.94
2022-12-08T15:59:33.959Z,99978.31
2022-12-08T16:03:05.043Z,99972.41
2022-12-08T16:06:57.039Z,99979.97
2022-12-08T16:09:26.993Z,99976.75
2022-12-08T16:13:54.984Z,99987.25
2022-12-08T16:16:18.678Z,99983.56
2022-12-08T16:19:23.943Z,99992.44
2022-12-08T16:29:26.423Z,99993.81
2022-12-08T16:32:35.094Z,99985.84
2022-12-08T16:35:41.060Z,99984.75
2022-12-08T16:38:48.579Z,99985.78
2022-12-08T16:42:13.999Z,99982.66
2022-12-08T16:45:24.982Z,99976.72
2022-12-08T16:48:30.766Z,99969.75
2022-12-08T16:51:39.431Z,99968.09
2022-12-08T16:54:49.239Z,99978.75
2022-12-08T16:57:58.891Z,99976.31
2022-12-08T17:01:04.833Z,99976.88
2022-12-08T17:04:30.901Z,99983.06
2022-12-08T17:07:37.867Z,99991.28
2022-12-08T17:10:44.707Z,99991.28
2022-12-08T17:13:52.720Z,99990.19
2022-12-08T17:16:58.480Z,99982.78
2022-12-08T17:20:06.848Z,99971.47
2022-12-08T17:23:14.849Z,99978.25
2022-12-08T17:26:20.951Z,99974.62
2022-12-08T17:29:26.409Z,99971.88
2022-12-08T17:32:31.634Z,99976.28
2022-12-08T17:35:38.368Z,99975.56
2022-12-08T17:38:46.241Z,99985.91
2022-12-08T17:41:52.678Z,99981.13
2022-12-08T17:44:58.690Z,99984.56
2022-12-08T17:48:07.681Z,99982.66
2022-12-08T17:51:14.183Z,99972.81
2022-12-08T17:54:22.803Z,99962.53
2022-12-08T17:57:29.591Z,99969.84
2022-12-08T18:00:37.985Z,99959.72
2022-12-08T18:03:46.650Z,99973.78
2022-12-08T18:06:53.624Z,99969.50
2022-12-08T18:10:00.582Z,99971.34
2022-12-08T18:13:07.145Z,99972.81
2022-12-08T18:16:14.580Z,99973.62
2022-12-08T18:19:25.138Z,99963.44
2022-12-08T18:22:33.265Z,99954.28
2022-12-08T18:25:38.803Z,99962.97
2022-12-08T18:28:44.253Z,99956.59
2022-12-08T18:31:54.035Z,99958.62
2022-12-08T18:35:02.189Z,99959.97
2022-12-08T18:38:08.115Z,99959.72
2022-12-08T18:41:16.743Z,99954.63
2022-12-08T18:44:21.362Z,99957.81
2022-12-08T18:47:28.497Z,99964.72
2022-12-08T18:50:32.753Z,99965.91
2022-12-08T18:53:38.407Z,99961.25
2022-12-08T18:56:43.033Z,99963.28
2022-12-08T18:59:49.289Z,99963.03
2022-12-08T19:02:55.416Z,99966.94
2022-12-08T19:06:06.473Z,99960.81
2022-12-08T19:09:13.675Z,99954.91
2022-12-08T19:12:21.515Z,99956.97
2022-12-08T19:15:28.665Z,99968.47
2022-12-08T19:18:34.844Z,99965.22
2022-12-08T19:21:46.291Z,99960.59
2022-12-08T19:24:53.734Z,99954.41
2022-12-08T19:28:00.175Z,99960.03
2022-12-08T19:31:07.065Z,99963.50
2022-12-08T19:34:15.728Z,99964.59
2022-12-08T19:37:22.501Z,99975.31
2022-12-08T19:40:49.581Z,99974.59
2022-12-08T19:44:13.210Z,99969.28
2022-12-08T19:47:18.266Z,99957.31
2022-12-08T19:50:39.271Z,99960.75
2022-12-08T19:53:47.634Z,99962.72
2022-12-08T19:56:55.331Z,99953.63
2022-12-08T20:00:07.088Z,99957.09
2022-12-08T20:03:17.018Z,99948.28
2022-12-08T20:06:23.977Z,99950.91
2022-12-08T20:09:28.297Z,99947.16
2022-12-08T20:12:39.426Z,99956.19
2022-12-08T20:15:47.037Z,99951.16
2022-12-08T20:18:56.222Z,99944.75
2022-12-08T20:22:04.420Z,99941.69
2022-12-08T20:25:13.576Z,99941.31
2022-12-08T20:28:23.893Z,99927.25
2022-12-08T20:31:34.313Z,99934.22
2022-12-08T20:34:39.625Z,99933.53
2022-12-08T20:37:46.245Z,99932.94
2022-12-08T20:40:51.411Z,99928.28
2022-12-08T20:43:59.151Z,99933.66
2022-12-08T20:47:05.504Z,99939.28
2022-12-08T20:50:12.495Z,99951.00
2022-12-08T20:53:21.991Z,99940.75
2022-12-08T20:56:30.147Z,99942.69
2022-12-08T20:59:37.846Z,99956.75
2022-12-08T21:02:48.550Z,99964.31
2022-12-08T21:05:54.183Z,99962.87
2022-12-08T21:09:01.635Z,99951.62
2022-12-08T21:12:07.917Z,99958.38
2022-12-08T21:15:16.787Z,99955.50
2022-12-08T21:18:23.579Z,99964.88
2022-12-08T21:21:31.418Z,99959.97
2022-12-08T21:24:36.719Z,99955.13
2022-12-08T21:27:43.511Z,99963.44
2022-12-08T21:30:50.473Z,99968.78
2022-12-08T21:33:59.174Z,99965.72
2022-12-08T21:37:09.502Z,99954.34
2022-12-08T21:40:16.637Z,99949.06
2022-12-08T21:43:23.223Z,99939.84
2022-12-08T21:46:30.187Z,99932.44
2022-12-08T21:49:36.600Z,99932.78
2022-12-08T21:52:44.137Z,99925.09
2022-12-08T21:55:50.287Z,99922.97
2022-12-08T21:58:56.589Z,99924.41
2022-12-08T22:02:02.104Z,99928.41
2022-12-08T22:05:07.836Z,99930.03
2022-12-08T22:08:15.515Z,99933.28
2022-12-08T22:11:23.914Z,99938.63
2022-12-08T22:14:32.278Z,99937.38
2022-12-08T22:17:40.460Z,99933.84
2022-12-08T22:20:46.145Z,99929.22
2022-12-08T22:23:53.041Z,99926.44
2022-12-08T22:27:00.731Z,99926.00
2022-12-08T22:30:13.275Z,99925.69
2022-12-08T22:33:21.783Z,99938.06
2022-12-08T22:36:28.350Z,99954.59
2022-12-08T22:39:33.445Z,99953.78
2022-12-08T22:42:38.019Z,99941.13
2022-12-08T22:45:41.148Z,99947.53
2022-12-08T22:48:44.513Z,99938.69
2022-12-08T22:51:47.375Z,99937.34
2022-12-08T22:54:52.492Z,99936.28
2022-12-08T22:57:58.223Z,99939.47
2022-12-08T23:01:07.091Z,99933.53
2022-12-08T23:04:17.715Z,99931.87
2022-12-08T23:07:24.346Z,99931.66
2022-12-08T23:10:30.931Z,99938.34
2022-12-08T23:13:39.810Z,99938.69
2022-12-08T23:16:46.277Z,99926.25
2022-12-08T23:19:53.898Z,99929.06
2022-12-08T23:23:00.401Z,99923.25
2022-12-08T23:26:07.071Z,99932.06
2022-12-08T23:29:13.950Z,99935.22
2022-12-08T23:32:21.823Z,99922.25
2022-12-08T23:35:27.486Z,99915.50
2022-12-08T23:38:36.354Z,99917.44
2022-12-08T23:41:43.952Z,99923.59
2022-12-08T23:44:52.843Z,99934.28
2022-12-08T23:48:00.673Z,99935.19
2022-12-08T23:51:07.487Z,99927.72
2022-12-08T23:54:13.409Z,99921.19
2022-12-08T23:57:20.485Z,99912.94
